Time;durP1;ratioP1;P1;durP2;ratioP2;P2;SDS_P1;SDS_P2;PMS_P1;PMS_P2;Temp;Humidity;BMP_temperature;BMP_pressure;BME280_temperature;BME280_humidity;BME280_pressure;Samples;Min_cycle;Max_cycle;Signal;HPM_P1;HPM_P2
2023/05/04 00:00:18;;;;;;;;;;;;;;;31.01;69.39;100868.81;5125299;27;66502;-36
2023/05/04 00:02:48;;;;;;;;;;;;;;;31.05;69.60;100861.91;5118871;27;69567;-36
2023/05/04 00:05:19;;;;;;;;;;;;;;;31.08;69.65;100872.28;5125761;27;66586;-35
2023/05/04 00:07:50;;;;;;;;;;;;;;;31.13;69.00;100858.91;5131753;27;69575;-38
2023/05/04 00:10:21;;;;;;;;;;;;;;;31.09;67.22;100871.25;5131223;27;66754;-35
2023/05/04 00:12:51;;;;;;;;;;;;;;;31.10;65.86;100864.78;5120032;27;70688;-36
2023/05/04 00:15:21;;;;;;;;;;;;;;;31.14;65.59;100865.97;5122531;27;66292;-38
2023/05/04 00:17:51;;;;;;;;;;;;;;;31.19;65.08;100872.63;5130287;27;69824;-36
2023/05/04 00:20:22;;;;;;;;;;;;;;;31.22;65.67;100877.59;5116937;27;66026;-35
2023/05/04 00:22:52;;;;;;;;;;;;;;;31.26;65.18;100874.22;5133323;27;69065;-35
2023/05/04 00:25:22;;;;;;;;;;;;;;;31.32;67.42;100888.75;5126978;27;66763;-35
2023/05/04 00:27:53;;;;;;;;;;;;;;;31.34;64.77;100887.50;5129270;27;70320;-36
2023/05/04 00:30:23;;;;;;;;;;;;;;;31.35;65.00;100886.44;5107603;27;66141;-36
2023/05/04 00:32:53;;;;;;;;;;;;;;;31.39;64.25;100900.38;5098387;27;69254;-36
2023/05/04 00:35:24;;;;;;;;;;;;;;;31.43;63.93;100900.78;5122265;27;65491;-35
2023/05/04 00:37:54;;;;;;;;;;;;;;;31.45;63.06;100899.47;5133397;27;69425;-36
2023/05/04 00:40:24;;;;;;;;;;;;;;;31.50;62.79;100896.94;5126901;27;66074;-38
2023/05/04 00:42:54;;;;;;;;;;;;;;;31.49;63.05;100898.00;5124774;27;70840;-35
2023/05/04 00:45:25;;;;;;;;;;;;;;;31.54;62.24;100909.00;5134104;27;66720;-35
2023/05/04 00:47:56;;;;;;;;;;;;;;;31.56;61.67;100906.88;5108785;27;70085;-35
2023/05/04 00:50:27;;;;;;;;;;;;;;;31.59;61.88;100916.44;5129059;27;66218;-36
2023/05/04 00:52:59;;;;;;;;;;;;;;;31.61;61.71;100919.78;5126346;27;69313;-35
2023/05/04 00:55:29;;;;;;;;;;;;;;;31.63;61.83;100920.38;5101640;27;66018;-35
2023/05/04 00:58:00;;;;;;;;;;;;;;;31.64;60.85;100922.03;5130300;27;68505;-35
2023/05/04 01:00:30;;;;;;;;;;;;;;;31.68;60.52;100919.69;5129780;27;65795;-35
2023/05/04 01:03:01;;;;;;;;;;;;;;;31.69;60.42;100919.47;5127717;27;70021;-36
2023/05/04 01:05:35;;;;;;;;;;;;;;;31.71;60.63;100930.94;5128470;27;66193;-36
2023/05/04 01:08:27;;;;;;;;;;;;;;;31.74;60.22;100935.09;5107253;27;69912;-38
2023/05/04 01:11:09;;;;;;;;;;;;;;;31.75;60.23;100936.72;5105180;27;61846;-35
2023/05/04 01:13:40;;;;;;;;;;;;;;;31.77;59.71;100932.75;5131058;27;70018;-35
2023/05/04 01:16:10;;;;;;;;;;;;;;;31.78;59.79;100931.69;5136453;27;65922;-36
2023/05/04 01:18:40;;;;;;;;;;;;;;;31.80;59.63;100923.34;5109976;27;69371;-34
2023/05/04 01:21:10;;;;;;;;;;;;;;;31.82;59.43;100926.66;5123263;27;66577;-34
2023/05/04 01:23:40;;;;;;;;;;;;;;;31.84;59.28;100927.22;5131572;27;69542;-37
2023/05/04 01:26:17;;;;;;;;;;;;;;;31.87;59.03;100928.66;5124436;27;66710;-35
2023/05/04 01:29:02;;;;;;;;;;;;;;;31.87;58.99;100918.63;5125876;27;68950;-36
2023/05/04 01:31:34;;;;;;;;;;;;;;;31.90;59.12;100912.78;5122564;27;66222;-36
2023/05/04 01:34:04;;;;;;;;;;;;;;;31.92;59.14;100910.69;5110816;27;69795;-36
2023/05/04 01:36:35;;;;;;;;;;;;;;;31.93;58.99;100912.38;5128926;27;65328;-35
2023/05/04 01:39:07;;;;;;;;;;;;;;;31.96;58.97;100913.81;5103394;27;70433;-35
2023/05/04 01:41:37;;;;;;;;;;;;;;;31.98;58.94;100917.94;5128736;27;66759;-36
2023/05/04 01:44:08;;;;;;;;;;;;;;;32.00;58.55;100926.66;5124765;27;69781;-38
2023/05/04 01:46:38;;;;;;;;;;;;;;;32.02;58.58;100916.41;5128159;27;66130;-36
2023/05/04 01:49:08;;;;;;;;;;;;;;;32.05;58.35;100926.81;5127973;27;70425;-36
2023/05/04 01:51:38;;;;;;;;;;;;;;;32.09;58.41;100924.47;5111564;27;66652;-36
2023/05/04 01:54:08;;;;;;;;;;;;;;;32.12;58.25;100931.31;5134635;27;70839;-36
2023/05/04 01:56:39;;;;;;;;;;;;;;;32.16;57.99;100927.13;5119857;27;66398;-36
2023/05/04 01:59:09;;;;;;;;;;;;;;;32.17;58.00;100928.75;5112639;27;70198;-36
2023/05/04 02:01:40;;;;;;;;;;;;;;;32.20;58.09;100939.97;5111551;27;65050;-35
2023/05/04 02:04:10;;;;;;;;;;;;;;;32.24;58.08;100940.38;5106646;27;70742;-36
2023/05/04 02:06:41;;;;;;;;;;;;;;;32.27;57.73;100923.63;5138356;27;66161;-35
2023/05/04 02:09:11;;;;;;;;;;;;;;;32.30;57.61;100928.59;5105360;27;68924;-39
2023/05/04 02:11:41;;;;;;;;;;;;;;;32.32;57.58;100931.91;5127486;27;66344;-36
2023/05/04 02:14:12;;;;;;;;;;;;;;;32.35;57.34;100927.94;5122137;27;70624;-35
2023/05/04 02:16:42;;;;;;;;;;;;;;;32.37;57.34;100934.75;5107140;27;66246;-37
2023/05/04 02:19:12;;;;;;;;;;;;;;;32.41;57.24;100930.53;5103600;27;70648;-35
2023/05/04 02:21:43;;;;;;;;;;;;;;;32.44;57.12;100916.50;5112349;27;67009;-36
2023/05/04 02:24:14;;;;;;;;;;;;;;;32.48;56.77;100919.59;5127173;27;70134;-36
2023/05/04 02:26:45;;;;;;;;;;;;;;;32.51;56.72;100927.28;5123949;27;65912;-38
2023/05/04 02:29:15;;;;;;;;;;;;;;;32.54;56.59;100926.84;5126434;27;69722;-37
2023/05/04 02:31:45;;;;;;;;;;;;;;;32.57;56.55;100929.09;5127322;27;66713;-35
2023/05/04 02:34:15;;;;;;;;;;;;;;;32.60;56.53;100919.66;5106955;27;70637;-36
2023/05/04 02:36:49;;;;;;;;;;;;;;;32.63;56.10;100920.03;5107848;27;66579;-37
2023/05/04 02:39:19;;;;;;;;;;;;;;;32.66;56.10;100924.16;5123195;27;69142;-35
2023/05/04 02:41:49;;;;;;;;;;;;;;;32.68;56.02;100914.72;5133440;27;65395;-36
2023/05/04 02:44:20;;;;;;;;;;;;;;;32.70;56.01;100915.31;5130315;27;70502;-37
2023/05/04 02:46:51;;;;;;;;;;;;;;;32.74;55.79;100906.72;5107614;27;66426;-35
2023/05/04 02:49:22;;;;;;;;;;;;;;;32.75;55.79;100903.75;5134976;27;69710;-37
2023/05/04 02:51:52;;;;;;;;;;;;;;;32.77;55.69;100906.25;5107196;27;66214;-37
2023/05/04 02:54:22;;;;;;;;;;;;;;;32.78;55.53;100897.84;5128277;27;69834;-36
2023/05/04 02:56:53;;;;;;;;;;;;;;;32.80;55.33;100890.31;5120888;27;66654;-36
2023/05/04 02:59:23;;;;;;;;;;;;;;;32.82;55.47;100899.06;5130560;27;70821;-36
2023/05/04 03:01:53;;;;;;;;;;;;;;;32.83;55.47;100889.84;5105721;27;66017;-36
2023/05/04 03:04:24;;;;;;;;;;;;;;;32.84;55.35;100883.34;5121957;27;69859;-36
2023/05/04 03:06:54;;;;;;;;;;;;;;;32.85;55.07;100882.28;5134864;27;66562;-37
2023/05/04 03:09:24;;;;;;;;;;;;;;;32.86;55.12;100883.94;5127458;27;70030;-36
2023/05/04 03:11:55;;;;;;;;;;;;;;;32.87;55.15;100880.16;5132472;27;67255;-37
2023/05/04 03:14:25;;;;;;;;;;;;;;;32.89;55.06;100883.47;5125694;27;69748;-36
2023/05/04 03:16:56;;;;;;;;;;;;;;;32.91;54.93;100880.53;5128583;27;67530;-37
2023/05/04 03:19:26;;;;;;;;;;;;;;;32.92;55.11;100872.13;5107758;27;70771;-36
2023/05/04 03:21:57;;;;;;;;;;;;;;;32.94;54.90;100864.56;5132769;27;65899;-35
2023/05/04 03:24:27;;;;;;;;;;;;;;;32.97;54.84;100862.47;5094776;27;68296;-35
2023/05/04 03:26:58;;;;;;;;;;;;;;;32.97;54.97;100857.84;5117791;27;67180;-36
2023/05/04 03:29:29;;;;;;;;;;;;;;;33.01;54.71;100847.34;5116926;27;70727;-36
2023/05/04 03:32:00;;;;;;;;;;;;;;;33.03;54.80;100856.09;5110444;27;66426;-35
2023/05/04 03:34:30;;;;;;;;;;;;;;;33.06;54.61;100850.19;5109045;27;69534;-36
2023/05/04 03:37:04;;;;;;;;;;;;;;;33.07;54.68;100846.41;5115547;27;67029;-37
2023/05/04 03:39:34;;;;;;;;;;;;;;;33.10;54.59;100849.50;5127336;27;69955;-34
2023/05/04 03:42:04;;;;;;;;;;;;;;;33.11;54.28;100842.16;5103966;27;65709;-36
2023/05/04 03:44:35;;;;;;;;;;;;;;;33.14;54.37;100841.69;5130934;27;69818;-38
2023/05/04 03:47:05;;;;;;;;;;;;;;;33.17;54.11;100835.78;5107563;27;66497;-36
2023/05/04 03:49:35;;;;;;;;;;;;;;;33.20;54.45;100834.47;5134991;27;69246;-36
2023/05/04 03:52:06;;;;;;;;;;;;;;;33.23;54.23;100828.56;5105850;27;66648;-36
2023/05/04 03:54:38;;;;;;;;;;;;;;;33.25;54.00;100827.25;5109079;27;70131;-36
2023/05/04 03:57:09;;;;;;;;;;;;;;;33.27;53.94;100818.88;5107219;27;66086;-35
2023/05/04 03:59:39;;;;;;;;;;;;;;;33.29;53.99;100812.16;5128654;27;70443;-36
2023/05/04 04:02:09;;;;;;;;;;;;;;;33.32;53.77;100817.09;5108331;27;66916;-36
2023/05/04 04:04:40;;;;;;;;;;;;;;;33.33;53.87;100810.59;5125192;27;69745;-37
2023/05/04 04:07:11;;;;;;;;;;;;;;;33.36;53.66;100814.72;5115052;27;66388;-37
2023/05/04 04:09:41;;;;;;;;;;;;;;;33.38;53.55;100805.25;5133361;27;69668;-36
2023/05/04 04:12:11;;;;;;;;;;;;;;;33.41;53.75;100803.16;5107413;27;66031;-37
2023/05/04 04:14:42;;;;;;;;;;;;;;;33.42;53.33;100800.16;5125668;27;69821;-35
2023/05/04 04:17:12;;;;;;;;;;;;;;;33.45;53.62;100798.88;5127535;27;66689;-37
2023/05/04 04:19:43;;;;;;;;;;;;;;;33.45;53.45;100794.25;5124341;27;70102;-34
2023/05/04 04:22:13;;;;;;;;;;;;;;;33.49;53.55;100790.00;5126318;27;66286;-37
2023/05/04 04:24:43;;;;;;;;;;;;;;;33.51;53.17;100787.03;5124671;27;69650;-39
2023/05/04 04:27:14;;;;;;;;;;;;;;;33.54;53.11;100792.84;5127645;27;66637;-36
2023/05/04 04:29:44;;;;;;;;;;;;;;;33.56;53.15;100787.16;5128907;27;70664;-35
2023/05/04 04:32:14;;;;;;;;;;;;;;;33.58;53.03;100776.88;5113503;27;65914;-37
2023/05/04 04:34:45;;;;;;;;;;;;;;;33.61;53.08;100784.56;5136966;27;69637;-36
2023/05/04 04:37:15;;;;;;;;;;;;;;;33.48;53.09;100744.00;5114814;27;66615;-36
2023/05/04 04:39:45;;;;;;;;;;;;;;;33.65;53.00;100763.94;5131625;27;69884;-36
2023/05/04 04:42:16;;;;;;;;;;;;;;;33.68;52.90;100760.72;5132621;27;66917;-36
2023/05/04 04:44:48;;;;;;;;;;;;;;;33.70;52.52;100747.72;5110359;27;68662;-36
2023/05/04 04:47:18;;;;;;;;;;;;;;;33.72;52.84;100751.03;5135070;27;65729;-37
2023/05/04 04:49:48;;;;;;;;;;;;;;;33.74;52.53;100748.91;5127944;27;69854;-35
2023/05/04 04:52:19;;;;;;;;;;;;;;;33.77;52.72;100748.41;5122037;27;66076;-35
2023/05/04 04:54:50;;;;;;;;;;;;;;;33.80;52.75;100742.47;5131163;27;69770;-36
2023/05/04 04:57:20;;;;;;;;;;;;;;;33.83;52.64;100745.78;5130042;27;66931;-37
2023/05/04 04:59:50;;;;;;;;;;;;;;;33.87;52.47;100746.94;5133461;27;71351;-37
2023/05/04 05:02:21;;;;;;;;;;;;;;;33.89;52.24;100744.81;5134731;27;66882;-36
2023/05/04 05:04:52;;;;;;;;;;;;;;;33.92;52.47;100738.88;5131518;27;69616;-35
2023/05/04 05:07:23;;;;;;;;;;;;;;;33.94;52.16;100736.75;5124199;27;66697;-35
2023/05/04 05:09:53;;;;;;;;;;;;;;;33.96;52.21;100726.41;5134945;27;69502;-36
2023/05/04 05:12:23;;;;;;;;;;;;;;;33.98;52.43;100727.00;5100491;27;67220;-36
2023/05/04 05:14:53;;;;;;;;;;;;;;;34.00;52.18;100722.97;5133529;27;70345;-36
2023/05/04 05:17:25;;;;;;;;;;;;;;;34.01;52.19;100716.44;5125121;27;64984;-39
2023/05/04 05:19:55;;;;;;;;;;;;;;;34.03;52.22;100714.31;5130173;27;69740;-38
2023/05/04 05:22:25;;;;;;;;;;;;;;;34.04;52.10;100706.97;5132589;27;65427;-39
2023/05/04 05:24:56;;;;;;;;;;;;;;;34.06;51.99;100704.03;5129997;27;70249;-35
2023/05/04 05:27:26;;;;;;;;;;;;;;;34.08;51.97;100693.75;5127463;27;66881;-35
2023/05/04 05:29:56;;;;;;;;;;;;;;;34.10;51.93;100697.88;5110279;27;70405;-37
2023/05/04 05:32:26;;;;;;;;;;;;;;;34.12;51.82;100684.81;5133277;27;66019;-36
2023/05/04 05:34:57;;;;;;;;;;;;;;;34.15;51.73;100680.78;5133448;27;70401;-37
2023/05/04 05:37:27;;;;;;;;;;;;;;;34.17;51.39;100674.03;5125532;27;65352;-40
2023/05/04 05:39:57;;;;;;;;;;;;;;;34.18;51.60;100672.94;5135001;27;69481;-37
2023/05/04 05:42:29;;;;;;;;;;;;;;;34.19;51.74;100663.72;5130897;27;66610;-37
2023/05/04 05:45:00;;;;;;;;;;;;;;;34.21;51.57;100660.72;5133647;27;70271;-37
2023/05/04 05:47:30;;;;;;;;;;;;;;;34.23;51.19;100656.69;5124194;27;66240;-36
2023/05/04 05:50:00;;;;;;;;;;;;;;;34.24;51.62;100647.47;5131598;27;70498;-36
2023/05/04 05:52:31;;;;;;;;;;;;;;;34.27;51.20;100643.41;5131128;27;66450;-37
2023/05/04 05:55:01;;;;;;;;;;;;;;;34.28;51.52;100639.63;5125360;27;70374;-36
2023/05/04 05:57:31;;;;;;;;;;;;;;;34.32;51.43;100634.50;5098281;27;66079;-38
2023/05/04 06:00:03;;;;;;;;;;;;;;;34.33;51.34;100636.16;5115096;27;70254;-38
2023/05/04 06:02:43;;;;;;;;;;;;;;;34.35;50.97;100623.94;5099041;27;66370;-35
2023/05/04 06:05:14;;;;;;;;;;;;;;;34.37;51.21;100626.41;5129600;27;69919;-38
2023/05/04 06:07:44;;;;;;;;;;;;;;;34.37;51.35;100620.94;5126891;27;66217;-36
2023/05/04 06:10:15;;;;;;;;;;;;;;;34.38;51.25;100611.69;5122524;27;69099;-38
2023/05/04 06:12:45;;;;;;;;;;;;;;;34.40;51.18;100609.56;5129672;27;66766;-36
2023/05/04 06:15:16;;;;;;;;;;;;;;;34.41;51.25;100595.69;5127708;27;70696;-36
2023/05/04 06:17:47;;;;;;;;;;;;;;;34.44;51.14;100594.38;5132154;27;66527;-37
2023/05/04 06:20:18;;;;;;;;;;;;;;;34.46;50.93;100593.06;5127065;27;69048;-38
2023/05/04 06:22:48;;;;;;;;;;;;;;;34.47;50.73;100589.25;5126171;27;66968;-36
2023/05/04 06:25:18;;;;;;;;;;;;;;;34.50;50.58;100585.19;5117003;27;70806;-36
2023/05/04 06:27:48;;;;;;;;;;;;;;;34.52;50.71;100577.59;5123013;27;65927;-37
2023/05/04 06:30:23;;;;;;;;;;;;;;;34.54;50.76;100561.81;5099380;27;69194;-37
2023/05/04 06:32:53;;;;;;;;;;;;;;;34.57;50.66;100561.34;5134470;27;66092;-37
2023/05/04 06:35:23;;;;;;;;;;;;;;;34.60;50.33;100558.13;5132601;27;70051;-37
2023/05/04 06:37:53;;;;;;;;;;;;;;;34.63;50.57;100560.34;5130952;27;66114;-36
2023/05/04 06:40:24;;;;;;;;;;;;;;;34.65;50.87;100546.44;5128645;27;70682;-36
2023/05/04 06:42:54;;;;;;;;;;;;;;;34.67;50.58;100545.13;5132466;27;66883;-35
2023/05/04 06:45:25;;;;;;;;;;;;;;;34.69;50.40;100542.97;5130994;27;71059;-37
2023/05/04 06:47:55;;;;;;;;;;;;;;;34.71;50.65;100537.25;5134075;27;66664;-36
2023/05/04 06:50:25;;;;;;;;;;;;;;;34.73;50.25;100526.13;5117914;27;70236;-37
2023/05/04 06:53:08;;;;;;;;;;;;;;;34.77;50.21;100516.34;5121899;27;66953;-36
2023/05/04 06:55:38;;;;;;;;;;;;;;;34.78;50.17;100510.66;5103783;27;68668;-37
2023/05/04 06:58:09;;;;;;;;;;;;;;;34.81;50.66;100510.13;5128368;27;66053;-35
2023/05/04 07:00:41;;;;;;;;;;;;;;;34.85;50.47;100513.16;5126288;27;71352;-37
2023/05/04 07:03:11;;;;;;;;;;;;;;;34.85;50.62;100500.38;5124538;27;66553;-36
2023/05/04 07:05:43;;;;;;;;;;;;;;;34.87;50.30;100489.22;5127589;27;69865;-35
2023/05/04 07:08:13;;;;;;;;;;;;;;;34.88;50.24;100490.84;5128846;27;66012;-36
2023/05/04 07:10:45;;;;;;;;;;;;;;;34.90;50.68;100483.25;5129118;27;70248;-36
2023/05/04 07:13:15;;;;;;;;;;;;;;;34.93;50.54;100471.81;5126900;27;66260;-34
2023/05/04 07:15:46;;;;;;;;;;;;;;;34.94;50.20;100462.59;5127486;27;70523;-36
2023/05/04 07:18:16;;;;;;;;;;;;;;;34.97;50.33;100462.06;5124747;27;66966;-37
2023/05/04 07:20:47;;;;;;;;;;;;;;;34.99;50.25;100459.06;5125532;27;68964;-36
2023/05/04 07:23:17;;;;;;;;;;;;;;;35.00;50.26;100458.81;5131180;27;66172;-36
2023/05/04 07:25:47;;;;;;;;;;;;;;;35.02;50.08;100459.38;5128720;27;69836;-36
2023/05/04 07:28:19;;;;;;;;;;;;;;;35.03;50.07;100444.66;5136423;27;65942;-37
2023/05/04 07:30:50;;;;;;;;;;;;;;;35.04;49.96;100440.84;5122942;27;69904;-37
2023/05/04 07:33:20;;;;;;;;;;;;;;;35.05;50.54;100452.56;5135802;27;66816;-37
2023/05/04 07:36:00;;;;;;;;;;;;;;;35.05;50.55;100442.50;5130188;27;69730;-36
2023/05/04 07:38:30;;;;;;;;;;;;;;;35.06;50.11;100433.28;5128588;27;66010;-36
2023/05/04 07:41:02;;;;;;;;;;;;;;;35.07;50.49;100434.91;5130101;27;70675;-36
2023/05/04 07:43:33;;;;;;;;;;;;;;;35.08;50.53;100441.22;5134670;27;66850;-36
2023/05/04 07:46:03;;;;;;;;;;;;;;;35.08;50.05;100433.84;5136492;27;70269;-37
2023/05/04 07:48:34;;;;;;;;;;;;;;;35.08;50.03;100439.28;5129055;27;66846;-36
2023/05/04 07:51:04;;;;;;;;;;;;;;;35.09;49.97;100430.03;5132742;27;70420;-36
2023/05/04 07:53:34;;;;;;;;;;;;;;;35.11;50.18;100427.88;5107846;27;66202;-36
2023/05/04 07:56:09;;;;;;;;;;;;;;;35.13;50.05;100413.97;5111802;27;70296;-36
2023/05/04 07:58:39;;;;;;;;;;;;;;;35.14;49.98;100408.25;5127033;27;66667;-36
2023/05/04 08:01:09;;;;;;;;;;;;;;;35.17;50.09;100408.84;5128137;27;70190;-37
2023/05/04 08:03:40;;;;;;;;;;;;;;;35.18;49.91;100402.28;5128281;27;66719;-36
2023/05/04 08:06:10;;;;;;;;;;;;;;;35.20;50.16;100405.59;5132220;27;70113;-36
2023/05/04 08:08:41;;;;;;;;;;;;;;;35.22;49.73;100403.44;5125873;27;66501;-36
2023/05/04 08:11:12;;;;;;;;;;;;;;;35.23;50.37;100402.34;5131406;27;70736;-35
2023/05/04 08:13:49;;;;;;;;;;;;;;;35.26;50.29;100396.34;5132967;27;66686;-35
2023/05/04 08:16:19;;;;;;;;;;;;;;;35.26;49.63;100388.16;5128375;27;70079;-36
2023/05/04 08:18:49;;;;;;;;;;;;;;;35.28;49.89;100402.38;5122768;27;66375;-36
2023/05/04 08:21:19;;;;;;;;;;;;;;;35.28;49.56;100395.00;5122157;27;70281;-35
2023/05/04 08:23:50;;;;;;;;;;;;;;;35.30;49.97;100394.72;5114044;27;65457;-35
2023/05/04 08:26:20;;;;;;;;;;;;;;;35.30;49.52;100392.00;5111732;27;70469;-36
2023/05/04 08:28:51;;;;;;;;;;;;;;;35.32;49.55;100389.84;5134131;27;66308;-37
2023/05/04 08:31:21;;;;;;;;;;;;;;;35.32;49.39;100387.13;5107464;27;69656;-37
2023/05/04 08:33:52;;;;;;;;;;;;;;;35.33;49.98;100383.31;5127401;27;65789;-35
2023/05/04 08:36:22;;;;;;;;;;;;;;;35.33;49.65;100375.97;5125488;27;70590;-38
2023/05/04 08:38:53;;;;;;;;;;;;;;;35.34;49.98;100385.78;5128851;27;66718;-36
2023/05/04 08:41:23;;;;;;;;;;;;;;;35.34;49.29;100390.41;5128489;27;70349;-37
2023/05/04 08:43:53;;;;;;;;;;;;;;;35.34;49.83;100385.78;5131186;27;66980;-37
2023/05/04 08:46:24;;;;;;;;;;;;;;;35.34;49.87;100385.78;5123527;27;69829;-36
2023/05/04 08:48:54;;;;;;;;;;;;;;;35.34;49.79;100390.41;5115447;27;66411;-36
2023/05/04 08:51:26;;;;;;;;;;;;;;;35.35;49.70;100383.84;5109148;27;69805;-36
2023/05/04 08:53:56;;;;;;;;;;;;;;;35.35;49.57;100381.13;5130682;27;67026;-36
2023/05/04 08:56:27;;;;;;;;;;;;;;;35.35;49.32;100375.69;5130185;27;69757;-37
2023/05/04 08:59:00;;;;;;;;;;;;;;;35.36;49.54;100371.88;5132438;27;66745;-37
2023/05/04 09:01:31;;;;;;;;;;;;;;;35.36;49.01;100369.16;5126678;27;70495;-37
2023/05/04 09:04:02;;;;;;;;;;;;;;;35.36;49.14;100363.72;5129915;27;66512;-36
2023/05/04 09:06:33;;;;;;;;;;;;;;;35.37;48.99;100362.63;5114354;27;69569;-36
2023/05/04 09:09:03;;;;;;;;;;;;;;;35.38;48.95;100366.97;5112739;27;66505;-35
2023/05/04 09:11:33;;;;;;;;;;;;;;;35.38;49.25;100369.69;5111779;27;69712;-36
2023/05/04 09:14:04;;;;;;;;;;;;;;;35.39;48.75;100381.44;5112250;27;66965;-36
2023/05/04 09:16:37;;;;;;;;;;;;;;;35.39;49.30;100376.81;5114157;27;70309;-35
2023/05/04 09:19:18;;;;;;;;;;;;;;;35.39;49.18;100362.38;5103416;27;65997;-38
2023/05/04 09:21:53;;;;;;;;;;;;;;;35.35;49.13;100359.31;5100612;27;70378;-35
2023/05/04 09:24:29;;;;;;;;;;;;;;;35.29;49.61;100365.84;5101457;27;66874;-37
2023/05/04 09:27:09;;;;;;;;;;;;;;;35.20;49.62;100361.97;5105729;27;69238;-35
2023/05/04 09:29:43;;;;;;;;;;;;;;;35.14;49.79;100364.66;5106047;27;65762;-37
2023/05/04 09:32:14;;;;;;;;;;;;;;;35.08;49.94;100359.44;5105981;27;70778;-38
2023/05/04 09:34:48;;;;;;;;;;;;;;;35.03;50.42;100365.63;5110840;27;66837;-38
2023/05/04 09:37:21;;;;;;;;;;;;;;;35.01;51.17;100365.06;5112627;27;70272;-37
2023/05/04 09:39:54;;;;;;;;;;;;;;;35.04;50.70;100359.09;5109768;27;67065;-39
2023/05/04 09:42:25;;;;;;;;;;;;;;;35.07;51.99;100374.94;5113202;27;69814;-38
2023/05/04 09:45:03;;;;;;;;;;;;;;;35.10;50.71;100384.50;5106957;27;66668;-36
2023/05/04 09:47:41;;;;;;;;;;;;;;;35.06;50.06;100376.03;5109357;27;70484;-35
2023/05/04 09:50:16;;;;;;;;;;;;;;;35.03;50.31;100384.72;5107058;27;65628;-36
2023/05/04 09:52:49;;;;;;;;;;;;;;;34.98;50.62;100392.03;5104876;27;69122;-37
2023/05/04 09:55:21;;;;;;;;;;;;;;;34.93;51.24;100390.88;5111306;27;65597;-36
2023/05/04 09:57:52;;;;;;;;;;;;;;;34.91;51.23;100387.63;5110754;27;70090;-37
2023/05/04 10:00:22;;;;;;;;;;;;;;;34.87;51.19;100385.66;5106151;27;67102;-36
2023/05/04 10:02:52;;;;;;;;;;;;;;;34.89;50.90;100388.94;5108686;27;69298;-36
2023/05/04 10:05:23;;;;;;;;;;;;;;;34.85;51.45;100394.09;5118485;27;66929;-40
2023/05/04 10:07:54;;;;;;;;;;;;;;;34.88;52.00;100403.63;5130707;27;70118;-38
2023/05/04 10:10:25;;;;;;;;;;;;;;;34.84;51.67;100400.63;5130570;27;64892;-36
2023/05/04 10:12:56;;;;;;;;;;;;;;;34.83;51.46;100400.91;5129395;27;69520;-36
2023/05/04 10:15:38;;;;;;;;;;;;;;;34.83;51.93;100414.53;5128433;27;66752;-36
2023/05/04 10:18:29;;;;;;;;;;;;;;;34.79;52.24;100405.19;5129412;27;70696;-37
2023/05/04 10:21:18;;;;;;;;;;;;;;;34.79;52.28;100410.66;5118335;27;66295;-37
2023/05/04 10:24:04;;;;;;;;;;;;;;;34.77;52.37;100401.91;5103808;27;70924;-36
2023/05/04 10:26:53;;;;;;;;;;;;;;;34.75;53.52;100409.53;5107548;27;66334;-37
2023/05/04 10:29:27;;;;;;;;;;;;;;;34.74;54.00;100407.88;5130630;27;70371;-36
2023/05/04 10:31:58;;;;;;;;;;;;;;;34.70;54.21;100408.38;5133345;27;65973;-36
2023/05/04 10:34:30;;;;;;;;;;;;;;;34.75;54.17;100412.25;5137664;27;69252;-37
2023/05/04 10:37:01;;;;;;;;;;;;;;;34.82;53.59;100415.56;5139428;27;65709;-36
2023/05/04 10:39:33;;;;;;;;;;;;;;;34.88;53.30;100418.13;5139516;27;69959;-39
2023/05/04 10:42:04;;;;;;;;;;;;;;;34.92;53.04;100415.69;5134486;27;66203;-37
2023/05/04 10:44:38;;;;;;;;;;;;;;;34.93;53.00;100409.13;5136254;27;69533;-40
2023/05/04 10:47:09;;;;;;;;;;;;;;;34.96;52.54;100414.06;5137901;27;66858;-36
2023/05/04 10:49:39;;;;;;;;;;;;;;;34.97;52.35;100421.19;5136794;27;70888;-37
2023/05/04 10:52:17;;;;;;;;;;;;;;;34.98;52.83;100413.81;5125591;27;65592;-36
2023/05/04 10:54:57;;;;;;;;;;;;;;;34.99;52.63;100416.28;5135545;27;70475;-37
2023/05/04 10:57:28;;;;;;;;;;;;;;;35.00;52.76;100417.94;5138990;27;66099;-36
2023/05/04 10:59:59;;;;;;;;;;;;;;;34.99;52.59;100423.63;5138262;27;69995;-37
2023/05/04 11:02:33;;;;;;;;;;;;;;;35.00;52.55;100425.28;5136393;27;66497;-36
2023/05/04 11:05:05;;;;;;;;;;;;;;;35.02;52.97;100431.28;5123987;27;70548;-38
2023/05/04 11:07:37;;;;;;;;;;;;;;;35.01;52.68;100435.91;5135360;27;66567;-37
2023/05/04 11:10:08;;;;;;;;;;;;;;;35.00;52.74;100439.75;5133206;27;71113;-37
2023/05/04 11:12:38;;;;;;;;;;;;;;;35.00;52.98;100430.75;5129632;27;66175;-37
2023/05/04 11:15:11;;;;;;;;;;;;;;;34.98;53.06;100436.44;5128103;27;70407;-36
2023/05/04 11:17:46;;;;;;;;;;;;;;;34.97;53.68;100440.25;5111542;27;66445;-38
2023/05/04 11:20:23;;;;;;;;;;;;;;;34.97;53.40;100440.25;5132116;27;69879;-37
2023/05/04 11:22:57;;;;;;;;;;;;;;;34.96;53.60;100438.59;5125752;27;66609;-38
2023/05/04 11:25:29;;;;;;;;;;;;;;;34.96;54.05;100440.50;5131298;27;70157;-38
2023/05/04 11:28:00;;;;;;;;;;;;;;;34.95;54.17;100434.25;5112854;27;65347;-36
2023/05/04 11:30:37;;;;;;;;;;;;;;;34.94;54.28;100427.16;5131450;27;68937;-36
2023/05/04 11:33:11;;;;;;;;;;;;;;;34.74;53.94;100397.78;5127545;27;66603;-36
2023/05/04 11:35:42;;;;;;;;;;;;;;;34.90;55.08;100435.00;5132366;27;69133;-37
2023/05/04 11:38:18;;;;;;;;;;;;;;;34.84;55.90;100432.50;5136780;27;66413;-38
2023/05/04 11:40:49;;;;;;;;;;;;;;;34.73;56.45;100438.94;5132303;27;71654;-36
2023/05/04 11:43:19;;;;;;;;;;;;;;;34.72;56.10;100448.19;5135982;27;65981;-36
2023/05/04 11:45:58;;;;;;;;;;;;;;;34.70;55.85;100446.53;5135006;27;70386;-38
2023/05/04 11:48:31;;;;;;;;;;;;;;;34.69;57.43;100444.91;5126741;27;67223;-37
2023/05/04 11:51:04;;;;;;;;;;;;;;;34.64;57.78;100441.31;5132919;27;69513;-37
2023/05/04 11:53:38;;;;;;;;;;;;;;;34.56;57.97;100445.28;5132393;27;65525;-37
2023/05/04 11:56:08;;;;;;;;;;;;;;;34.58;57.53;100448.59;5129789;27;69765;-38
2023/05/04 11:58:39;;;;;;;;;;;;;;;34.61;57.28;100450.00;5134394;27;66570;-39
2023/05/04 12:01:09;;;;;;;;;;;;;;;34.63;57.55;100451.38;5134126;27;70859;-37
2023/05/04 12:03:41;;;;;;;;;;;;;;;34.64;57.20;100447.56;5134717;27;65544;-38
2023/05/04 12:06:31;;;;;;;;;;;;;;;34.52;56.42;100455.03;5108897;27;70563;-39
2023/05/04 12:09:05;;;;;;;;;;;;;;;34.24;53.95;100451.44;5131628;27;65347;-39
2023/05/04 12:11:39;;;;;;;;;;;;;;;33.96;51.80;100446.97;5133329;27;71067;-37
2023/05/04 12:14:13;;;;;;;;;;;;;;;33.69;50.29;100446.88;5132634;27;65954;-38
2023/05/04 12:16:53;;;;;;;;;;;;;;;33.48;49.03;100442.16;5133182;27;70584;-38
2023/05/04 12:19:23;;;;;;;;;;;;;;;33.28;47.87;100448.91;5130143;27;65838;-37
2023/05/04 12:21:56;;;;;;;;;;;;;;;33.14;47.52;100455.75;5133289;27;70429;-37
2023/05/04 12:24:32;;;;;;;;;;;;;;;33.04;46.55;100458.28;5132062;27;66841;-35
2023/05/04 12:27:03;;;;;;;;;;;;;;;32.94;45.58;100462.44;5132087;27;68759;-36
2023/05/04 12:29:33;;;;;;;;;;;;;;;32.83;44.68;100455.19;5134513;27;65139;-35
2023/05/04 12:32:04;;;;;;;;;;;;;;;32.69;43.59;100460.09;5115651;27;69661;-35
2023/05/04 12:34:35;;;;;;;;;;;;;;;32.63;43.35;100460.25;5135587;27;66660;-36
2023/05/04 12:37:06;;;;;;;;;;;;;;;32.53;42.69;100457.31;5120418;27;70437;-36
2023/05/04 12:39:36;;;;;;;;;;;;;;;32.42;42.63;100465.22;5115563;27;66084;-37
2023/05/04 12:42:06;;;;;;;;;;;;;;;32.33;42.07;100461.25;5128414;27;70911;-38
2023/05/04 12:44:36;;;;;;;;;;;;;;;32.25;41.77;100464.34;5110475;27;65406;-37
2023/05/04 12:47:07;;;;;;;;;;;;;;;32.24;42.23;100474.38;5125963;27;69585;-37
2023/05/04 12:49:37;;;;;;;;;;;;;;;32.25;43.28;100473.31;5124128;27;65465;-36
2023/05/04 12:52:07;;;;;;;;;;;;;;;32.22;43.59;100470.25;5128566;27;69779;-37
2023/05/04 12:54:38;;;;;;;;;;;;;;;32.15;43.40;100466.81;5100889;27;66617;-38
2023/05/04 12:57:08;;;;;;;;;;;;;;;32.07;43.04;100472.63;5127412;27;69721;-36